Time;durP1;ratioP1;P1;durP2;ratioP2;P2;SDS_P1;SDS_P2;PMS_P1;PMS_P2;Temp;Humidity;BMP_temperature;BMP_pressure;BME280_temperature;BME280_humidity;BME280_pressure;Samples;Min_cycle;Max_cycle;Signal;HPM_P1;HPM_P2
2023/08/08 00:01:12;;;;;;;3.97;2.22;;;13.40;99.00;;;;;;4917625;28;88001;-76
2023/08/08 00:03:37;;;;;;;6.03;2.20;;;13.40;98.90;;;;;;4917946;28;88944;-76
2023/08/08 00:06:03;;;;;;;9.02;2.38;;;13.40;99.00;;;;;;4917935;28;87497;-75
2023/08/08 00:08:29;;;;;;;7.68;3.58;;;13.40;99.00;;;;;;4918614;28;87933;-76
2023/08/08 00:10:54;;;;;;;6.60;2.10;;;13.40;99.00;;;;;;4917069;28;88528;-76
2023/08/08 00:13:20;;;;;;;4.80;2.30;;;13.40;98.90;;;;;;4917755;28;90334;-76
2023/08/08 00:15:46;;;;;;;7.00;2.38;;;13.40;99.00;;;;;;4918193;28;87450;-76
2023/08/08 00:18:11;;;;;;;5.85;2.53;;;13.40;99.00;;;;;;4917978;28;87656;-76
2023/08/08 00:20:37;;;;;;;6.38;2.47;;;13.40;99.00;;;;;;4918886;28;88824;-76
2023/08/08 00:23:03;;;;;;;5.13;2.33;;;13.40;99.00;;;;;;4917640;28;88206;-76
2023/08/08 00:25:28;;;;;;;4.72;1.98;;;13.40;99.00;;;;;;4899701;28;87839;-76
2023/08/08 00:27:54;;;;;;;3.25;1.70;;;13.40;98.90;;;;;;4916445;28;90426;-76
2023/08/08 00:30:20;;;;;;;3.67;1.77;;;13.40;98.90;;;;;;4917208;28;88408;-76
2023/08/08 00:32:45;;;;;;;4.30;1.98;;;13.40;98.90;;;;;;4917494;28;87749;-76
2023/08/08 00:35:11;;;;;;;8.35;2.33;;;13.40;98.90;;;;;;4917897;28;88756;-76
2023/08/08 00:37:37;;;;;;;5.68;2.03;;;13.40;98.90;;;;;;4917925;28;87570;-76
2023/08/08 00:40:03;;;;;;;7.00;2.22;;;13.40;98.90;;;;;;4907204;28;90509;-76
2023/08/08 00:42:28;;;;;;;4.57;1.95;;;13.40;99.00;;;;;;4899670;28;91453;-76
2023/08/08 00:44:54;;;;;;;9.48;2.15;;;13.40;99.20;;;;;;4917977;28;87228;-75
2023/08/08 00:47:19;;;;;;;3.53;2.08;;;13.30;98.90;;;;;;4918257;28;87127;-76
2023/08/08 00:49:48;;;;;;;5.57;2.33;;;13.40;99.00;;;;;;4917720;28;89541;-75
2023/08/08 00:52:14;;;;;;;4.93;2.65;;;13.30;99.00;;;;;;4917022;28;88388;-76
2023/08/08 00:54:40;;;;;;;11.05;2.38;;;13.40;99.10;;;;;;4917742;28;87481;-76
2023/08/08 00:57:06;;;;;;;5.22;2.10;;;13.30;99.00;;;;;;4917301;28;87572;-76
2023/08/08 00:59:32;;;;;;;4.28;2.63;;;13.30;99.10;;;;;;4917968;28;89550;-76
2023/08/08 01:01:58;;;;;;;7.20;2.90;;;13.30;99.10;;;;;;4917225;28;89425;-76
2023/08/08 01:04:26;;;;;;;3.40;2.20;;;13.30;99.20;;;;;;4917387;28;87635;-76
2023/08/08 01:07:02;;;;;;;6.47;2.22;;;13.30;99.20;;;;;;4917585;28;88028;-76
2023/08/08 01:09:44;;;;;;;7.60;2.33;;;13.30;99.30;;;;;;4916953;28;88786;-76
2023/08/08 01:12:14;;;;;;;8.00;3.13;;;13.30;99.50;;;;;;4917779;28;88495;-75
2023/08/08 01:14:43;;;;;;;6.25;2.60;;;13.30;99.50;;;;;;4918762;28;87477;-76
2023/08/08 01:17:10;;;;;;;6.30;2.67;;;13.30;99.60;;;;;;4917032;28;87045;-76
2023/08/08 01:19:36;;;;;;;7.78;2.92;;;13.30;99.60;;;;;;4916640;28;88179;-76
2023/08/08 01:22:06;;;;;;;6.03;2.35;;;13.30;99.70;;;;;;4916857;28;88394;-76
2023/08/08 01:24:36;;;;;;;10.07;2.45;;;13.20;99.80;;;;;;4906657;28;88482;-76
2023/08/08 01:27:05;;;;;;;9.52;2.63;;;13.20;99.80;;;;;;4916364;28;88542;-76
2023/08/08 01:29:31;;;;;;;9.15;2.50;;;13.20;99.90;;;;;;4917392;28;88568;-76
2023/08/08 01:31:56;;;;;;;12.50;2.95;;;13.20;99.90;;;;;;4917355;28;88408;-76
2023/08/08 01:34:22;;;;;;;8.43;2.67;;;13.20;99.90;;;;;;4917448;28;88476;-76
2023/08/08 01:36:52;;;;;;;8.13;3.17;;;13.20;99.90;;;;;;4915454;28;90858;-75
2023/08/08 01:39:22;;;;;;;8.77;2.63;;;13.20;99.90;;;;;;4916571;28;88464;-76
2023/08/08 01:41:50;;;;;;;7.75;3.45;;;13.20;99.90;;;;;;4899209;28;90710;-76
2023/08/08 01:44:17;;;;;;;11.20;4.05;;;13.20;99.90;;;;;;4917446;28;87820;-76
2023/08/08 01:46:43;;;;;;;8.45;2.72;;;13.10;99.90;;;;;;4917247;28;87481;-76
2023/08/08 01:49:08;;;;;;;8.23;2.42;;;13.10;99.90;;;;;;4915177;28;89605;-76
2023/08/08 01:51:34;;;;;;;10.95;3.38;;;13.10;99.90;;;;;;4916420;28;89485;-76
2023/08/08 01:54:00;;;;;;;8.43;2.70;;;13.10;99.90;;;;;;4916186;28;87442;-76
2023/08/08 01:56:25;;;;;;;9.05;2.92;;;13.10;99.90;;;;;;4907768;28;90777;-76
2023/08/08 01:58:51;;;;;;;10.93;3.20;;;13.10;99.90;;;;;;4916691;28;87840;-76
2023/08/08 02:01:16;;;;;;;14.10;3.85;;;13.10;99.90;;;;;;4916854;28;88401;-75
2023/08/08 02:03:42;;;;;;;8.80;2.53;;;13.10;99.90;;;;;;4916477;28;88090;-76
2023/08/08 02:06:08;;;;;;;10.73;3.03;;;13.10;99.90;;;;;;4915468;28;90805;-76
2023/08/08 02:08:33;;;;;;;6.88;3.08;;;13.10;99.90;;;;;;4919393;28;88628;-76
2023/08/08 02:10:59;;;;;;;15.65;3.17;;;13.10;99.90;;;;;;4919504;28;87679;-76
2023/08/08 02:13:24;;;;;;;9.15;3.05;;;13.10;99.90;;;;;;4919036;28;88874;-76
2023/08/08 02:15:50;;;;;;;7.50;3.17;;;13.00;99.90;;;;;;4918915;28;93761;-76
2023/08/08 02:18:16;;;;;;;12.02;3.42;;;13.00;99.90;;;;;;4919881;28;88626;-76
2023/08/08 02:20:41;;;;;;;10.88;3.08;;;13.00;99.90;;;;;;4919817;28;88446;-76
2023/08/08 02:23:07;;;;;;;9.57;3.00;;;13.00;99.90;;;;;;4901249;28;87768;-76
2023/08/08 02:25:32;;;;;;;13.68;3.13;;;13.00;99.90;;;;;;4918356;28;87842;-76
2023/08/08 02:27:58;;;;;;;12.38;3.30;;;13.00;99.90;;;;;;4918347;28;88621;-76
2023/08/08 02:30:24;;;;;;;12.45;4.13;;;13.00;99.90;;;;;;4920182;28;87761;-76
2023/08/08 02:32:49;;;;;;;11.73;3.58;;;13.00;99.90;;;;;;4919659;28;87603;-76
2023/08/08 02:35:15;;;;;;;8.82;3.00;;;13.00;99.90;;;;;;4919400;28;87970;-76
2023/08/08 02:37:41;;;;;;;11.10;2.70;;;13.00;99.90;;;;;;4918750;28;88672;-76
2023/08/08 02:40:07;;;;;;;8.13;2.60;;;13.00;99.90;;;;;;4919413;28;89709;-76
2023/08/08 02:42:33;;;;;;;9.20;3.65;;;13.00;99.90;;;;;;4919405;28;87699;-76
2023/08/08 02:44:59;;;;;;;13.27;4.80;;;13.00;99.90;;;;;;4900816;28;90631;-76
2023/08/08 02:47:24;;;;;;;13.93;3.47;;;13.00;99.90;;;;;;4910674;28;91442;-76
2023/08/08 02:49:50;;;;;;;14.30;3.80;;;13.00;99.90;;;;;;4918478;28;89250;-75
2023/08/08 02:52:16;;;;;;;21.45;2.90;;;12.90;99.90;;;;;;4919612;28;87834;-76
2023/08/08 02:54:41;;;;;;;11.60;3.95;;;13.00;99.90;;;;;;4919210;28;88292;-76
2023/08/08 02:57:10;;;;;;;13.02;3.30;;;12.90;99.90;;;;;;4902023;28;90519;-76
2023/08/08 02:59:36;;;;;;;11.63;3.10;;;12.90;99.90;;;;;;4919700;28;88579;-76
2023/08/08 03:02:03;;;;;;;14.90;3.53;;;12.90;99.90;;;;;;4918977;28;88215;-76
2023/08/08 03:04:29;;;;;;;11.52;3.45;;;12.80;99.90;;;;;;4918537;28;88316;-76
2023/08/08 03:06:55;;;;;;;14.23;3.78;;;12.80;99.90;;;;;;4918471;28;88771;-76
2023/08/08 03:09:20;;;;;;;15.40;3.30;;;12.80;99.90;;;;;;4918597;28;87865;-76
2023/08/08 03:11:46;;;;;;;13.88;3.90;;;12.80;99.90;;;;;;4901150;28;87702;-76
2023/08/08 03:14:12;;;;;;;9.18;3.00;;;12.80;99.90;;;;;;4919615;28;87632;-76
2023/08/08 03:16:37;;;;;;;11.98;3.75;;;12.80;99.90;;;;;;4916966;28;91767;-77
2023/08/08 03:19:03;;;;;;;11.70;4.10;;;12.80;99.90;;;;;;4918059;28;88382;-76
2023/08/08 03:21:29;;;;;;;17.30;4.05;;;12.80;99.90;;;;;;4918938;28;87808;-76
2023/08/08 03:23:54;;;;;;;9.82;3.28;;;12.80;99.90;;;;;;4918587;28;87592;-76
2023/08/08 03:26:20;;;;;;;11.75;4.05;;;12.80;99.90;;;;;;4918952;28;90133;-76
2023/08/08 03:28:50;;;;;;;14.70;4.75;;;12.80;99.90;;;;;;4901385;28;91167;-76
2023/08/08 03:31:16;;;;;;;13.85;3.50;;;12.80;99.90;;;;;;4918867;28;87897;-76
2023/08/08 03:33:42;;;;;;;10.80;3.35;;;12.70;99.90;;;;;;4917270;28;88025;-75
2023/08/08 03:36:08;;;;;;;10.88;3.38;;;12.70;99.90;;;;;;4917587;28;87826;-76
2023/08/08 03:38:34;;;;;;;12.40;3.65;;;12.70;99.90;;;;;;4917994;28;88891;-75
2023/08/08 03:40:59;;;;;;;16.70;4.30;;;12.70;99.90;;;;;;4916511;28;87489;-76
2023/08/08 03:43:25;;;;;;;18.27;4.05;;;12.70;99.90;;;;;;4901105;28;94819;-76
2023/08/08 03:45:51;;;;;;;14.43;3.97;;;12.70;99.90;;;;;;4919039;28;88761;-76
2023/08/08 03:48:16;;;;;;;12.52;3.80;;;12.70;99.90;;;;;;4918491;28;88137;-76
2023/08/08 03:50:42;;;;;;;11.93;3.53;;;12.70;99.90;;;;;;4918111;28;88410;-76
2023/08/08 03:53:07;;;;;;;16.45;4.50;;;12.70;99.90;;;;;;4917583;28;87815;-76
2023/08/08 03:55:33;;;;;;;13.85;3.72;;;12.70;99.90;;;;;;4917815;28;89511;-76
2023/08/08 03:57:59;;;;;;;13.82;4.38;;;12.70;99.90;;;;;;4918045;28;87712;-76
2023/08/08 04:00:24;;;;;;;15.93;3.95;;;12.60;99.90;;;;;;4918228;28;87503;-76
2023/08/08 04:02:50;;;;;;;11.23;3.88;;;12.60;99.90;;;;;;4917431;28;88001;-76
2023/08/08 04:05:16;;;;;;;12.27;3.90;;;12.60;99.90;;;;;;4917793;28;88311;-76
2023/08/08 04:07:42;;;;;;;21.77;3.78;;;12.60;99.90;;;;;;4920013;28;87143;-75
2023/08/08 04:10:07;;;;;;;14.95;4.28;;;12.60;99.90;;;;;;4919768;28;87539;-76
2023/08/08 04:12:33;;;;;;;23.58;5.20;;;12.60;99.90;;;;;;4919347;28;87523;-76
2023/08/08 04:14:59;;;;;;;20.20;4.22;;;12.60;99.90;;;;;;4917929;28;89490;-76
2023/08/08 04:17:24;;;;;;;9.70;4.03;;;12.50;99.90;;;;;;4902666;28;91312;-75
2023/08/08 04:19:50;;;;;;;17.73;4.63;;;12.50;99.90;;;;;;4892474;28;87783;-75
2023/08/08 04:22:17;;;;;;;11.68;3.67;;;12.50;99.90;;;;;;4917586;28;87746;-76
2023/08/08 04:24:43;;;;;;;10.27;3.85;;;12.50;99.90;;;;;;4918618;28;88768;-76
2023/08/08 04:27:10;;;;;;;16.38;3.70;;;12.50;99.90;;;;;;4918885;28;87729;-76
2023/08/08 04:29:36;;;;;;;13.40;4.22;;;12.50;99.90;;;;;;4919790;28;87134;-76
2023/08/08 04:32:01;;;;;;;21.13;4.50;;;12.50;99.90;;;;;;4901725;28;90030;-76
2023/08/08 04:34:27;;;;;;;17.17;3.83;;;12.50;99.90;;;;;;4919209;28;87747;-76
2023/08/08 04:36:53;;;;;;;14.23;4.20;;;12.50;99.90;;;;;;4919484;28;88058;-76
2023/08/08 04:39:18;;;;;;;15.32;3.72;;;12.50;99.90;;;;;;4917905;28;88410;-76
2023/08/08 04:41:44;;;;;;;15.00;3.65;;;12.50;99.90;;;;;;4919613;28;87739;-76
2023/08/08 04:44:10;;;;;;;15.75;4.22;;;12.50;99.90;;;;;;4903219;28;92039;-76
2023/08/08 04:46:37;;;;;;;12.73;3.78;;;12.50;99.90;;;;;;4915735;28;87843;-76
2023/08/08 04:49:03;;;;;;;14.68;4.15;;;12.50;99.90;;;;;;4899186;28;87769;-76
2023/08/08 04:51:29;;;;;;;18.17;4.43;;;12.50;99.90;;;;;;4900988;28;87769;-76
2023/08/08 04:53:54;;;;;;;16.83;4.35;;;12.50;99.90;;;;;;4917987;28;87815;-76
2023/08/08 04:56:20;;;;;;;13.73;4.43;;;12.50;99.90;;;;;;4918973;28;88785;-76
2023/08/08 04:58:46;;;;;;;14.93;4.60;;;12.50;99.90;;;;;;4901358;28;87962;-76
2023/08/08 05:01:14;;;;;;;19.98;5.30;;;12.60;99.90;;;;;;4900915;28;90799;-76
2023/08/08 05:03:40;;;;;;;14.15;5.18;;;12.60;99.90;;;;;;4917895;28;88890;-76
2023/08/08 05:06:09;;;;;;;16.60;4.90;;;12.60;99.90;;;;;;4920057;28;88702;-76
2023/08/08 05:08:34;;;;;;;16.77;4.93;;;12.60;99.90;;;;;;4902125;28;87698;-76
2023/08/08 05:11:00;;;;;;;15.23;4.97;;;12.60;99.90;;;;;;4916716;28;87665;-76
2023/08/08 05:13:26;;;;;;;21.00;4.95;;;12.60;99.90;;;;;;4919659;28;88226;-76
2023/08/08 05:15:52;;;;;;;13.18;5.43;;;12.70;99.90;;;;;;4916821;28;89141;-76
2023/08/08 05:18:17;;;;;;;14.38;5.32;;;12.70;99.90;;;;;;4917179;28;87748;-76
2023/08/08 05:20:43;;;;;;;19.58;5.88;;;12.80;99.90;;;;;;4917612;28;86903;-76
2023/08/08 05:23:11;;;;;;;21.00;5.47;;;12.80;99.90;;;;;;4917210;28;88702;-79
2023/08/08 05:25:36;;;;;;;17.55;6.15;;;12.80;99.90;;;;;;4900390;28;92093;-79
2023/08/08 05:28:05;;;;;;;19.42;5.97;;;12.80;99.90;;;;;;4899691;28;88241;-79
2023/08/08 05:30:33;;;;;;;15.18;6.05;;;12.90;99.90;;;;;;4919390;28;88001;-79
2023/08/08 05:32:59;;;;;;;22.48;5.75;;;12.90;99.90;;;;;;4903041;28;90812;-79
2023/08/08 05:35:32;;;;;;;18.42;5.05;;;13.00;99.90;;;;;;4905644;28;90135;-79
2023/08/08 05:38:00;;;;;;;20.20;5.75;;;13.10;99.90;;;;;;4904098;28;87475;-79
2023/08/08 05:40:25;;;;;;;20.92;5.90;;;13.10;99.90;;;;;;4904386;28;90085;-78
2023/08/08 05:42:53;;;;;;;15.05;6.22;;;13.10;99.90;;;;;;4903680;28;91419;-79
2023/08/08 05:45:22;;;;;;;19.65;5.50;;;13.20;99.90;;;;;;4917768;28;90077;-79
2023/08/08 05:47:48;;;;;;;21.10;5.55;;;13.20;99.90;;;;;;4907262;28;87738;-79
2023/08/08 05:50:13;;;;;;;18.38;6.20;;;13.30;99.90;;;;;;4907546;28;90258;-78
2023/08/08 05:52:45;;;;;;;18.90;5.38;;;13.30;99.90;;;;;;4921905;28;89034;-79
2023/08/08 05:55:13;;;;;;;20.15;6.15;;;13.40;99.90;;;;;;4912773;28;95555;-79
2023/08/08 05:57:39;;;;;;;22.02;5.65;;;13.40;99.90;;;;;;4907021;28;87625;-79
2023/08/08 06:00:08;;;;;;;15.45;4.88;;;13.50;99.90;;;;;;4909520;28;89450;-78
2023/08/08 06:02:34;;;;;;;15.35;5.30;;;13.60;99.90;;;;;;4909222;28;89654;-78
2023/08/08 06:05:02;;;;;;;17.75;5.15;;;13.60;99.90;;;;;;4913036;28;87578;-79
2023/08/08 06:07:28;;;;;;;11.55;5.30;;;13.70;99.90;;;;;;4920253;28;87468;-79
2023/08/08 06:09:53;;;;;;;18.77;5.40;;;13.80;99.90;;;;;;4920896;28;87371;-79
2023/08/08 06:12:19;;;;;;;15.13;5.43;;;13.80;99.90;;;;;;4911169;28;92031;-79
2023/08/08 06:14:45;;;;;;;11.07;4.60;;;13.90;99.90;;;;;;4912282;28;91243;-79
2023/08/08 06:17:11;;;;;;;17.38;4.53;;;14.00;99.90;;;;;;4910022;28;88568;-79
2023/08/08 06:19:37;;;;;;;18.30;4.93;;;14.00;99.90;;;;;;4919764;28;87798;-78
2023/08/08 06:22:05;;;;;;;18.58;5.47;;;14.00;99.90;;;;;;4917531;28;92484;-79
2023/08/08 06:24:31;;;;;;;14.70;4.97;;;14.10;99.90;;;;;;4902578;28;89761;-78
2023/08/08 06:26:57;;;;;;;15.93;4.93;;;14.20;99.90;;;;;;4919618;28;87799;-78
2023/08/08 06:29:26;;;;;;;13.68;4.22;;;14.30;99.90;;;;;;4923206;28;87428;-80
2023/08/08 06:31:52;;;;;;;12.93;4.13;;;14.30;99.90;;;;;;4896735;28;90435;-79
2023/08/08 06:34:18;;;;;;;14.20;4.18;;;14.40;99.90;;;;;;4926692;28;88139;-80
2023/08/08 06:36:43;;;;;;;14.05;4.57;;;14.50;99.90;;;;;;4909333;28;87911;-79
2023/08/08 06:39:11;;;;;;;11.00;4.35;;;14.60;99.90;;;;;;4902013;28;89627;-79
2023/08/08 06:41:38;;;;;;;17.88;4.47;;;14.60;99.90;;;;;;4921412;28;88408;-79
2023/08/08 06:44:04;;;;;;;13.75;4.20;;;14.70;99.90;;;;;;4920875;28;88434;-79
2023/08/08 06:46:30;;;;;;;9.40;4.07;;;14.90;99.90;;;;;;4903706;28;87798;-80
2023/08/08 06:48:58;;;;;;;11.65;4.22;;;14.90;99.90;;;;;;4920405;28;87738;-79
2023/08/08 06:51:25;;;;;;;16.13;4.13;;;15.00;99.90;;;;;;4918320;28;91623;-80
2023/08/08 06:53:52;;;;;;;11.50;4.00;;;15.20;99.90;;;;;;4912168;28;90570;-80
2023/08/08 06:56:18;;;;;;;15.02;4.68;;;15.20;99.90;;;;;;4904823;28;87993;-79
2023/08/08 06:58:43;;;;;;;12.07;4.10;;;15.30;99.90;;;;;;4901644;28;90398;-79
2023/08/08 07:01:09;;;;;;;23.25;4.88;;;15.30;99.80;;;;;;4903871;28;91604;-79
2023/08/08 07:03:36;;;;;;;17.02;4.30;;;15.40;99.50;;;;;;4913283;28;87608;-80
2023/08/08 07:06:02;;;;;;;14.70;4.40;;;15.40;99.50;;;;;;4904645;28;88531;-80
2023/08/08 07:08:29;;;;;;;10.23;4.80;;;15.50;99.50;;;;;;4907782;28;89804;-79
2023/08/08 07:10:58;;;;;;;15.38;4.45;;;15.60;99.10;;;;;;4917929;28;89522;-79
2023/08/08 07:13:24;;;;;;;12.23;4.22;;;15.70;99.30;;;;;;4902389;28;87414;-77
2023/08/08 07:15:50;;;;;;;14.05;4.50;;;15.70;98.70;;;;;;4920608;28;89180;-76
2023/08/08 07:18:16;;;;;;;16.10;4.25;;;15.80;99.00;;;;;;4913370;28;90275;-79
2023/08/08 07:20:42;;;;;;;12.55;4.03;;;15.90;98.60;;;;;;4905649;28;91740;-79
2023/08/08 07:23:08;;;;;;;10.73;3.55;;;16.00;98.50;;;;;;4904099;28;91399;-79
2023/08/08 07:25:34;;;;;;;12.40;4.47;;;16.00;98.50;;;;;;4918350;28;87646;-79
2023/08/08 07:28:00;;;;;;;13.45;4.40;;;16.10;97.80;;;;;;4893952;28;90915;-79
2023/08/08 07:30:30;;;;;;;14.02;4.50;;;16.10;97.70;;;;;;4892799;28;91554;-79
2023/08/08 07:33:00;;;;;;;12.77;4.63;;;16.20;97.70;;;;;;4920854;28;88503;-79
2023/08/08 07:35:27;;;;;;;17.30;4.20;;;16.30;97.40;;;;;;4913670;28;87210;-79
2023/08/08 07:37:56;;;;;;;14.35;4.28;;;16.30;97.50;;;;;;4908296;28;90991;-80
2023/08/08 07:40:24;;;;;;;13.60;4.05;;;16.30;97.30;;;;;;4903840;28;92536;-79
2023/08/08 07:42:50;;;;;;;15.50;4.63;;;16.40;97.40;;;;;;4910044;28;91615;-80
2023/08/08 07:45:18;;;;;;;14.25;4.53;;;16.40;97.30;;;;;;4913207;28;87509;-79
2023/08/08 07:47:48;;;;;;;15.65;4.43;;;16.40;96.60;;;;;;4920775;28;87714;-81
2023/08/08 07:50:24;;;;;;;43.10;9.73;;;16.50;96.90;;;;;;4914785;28;95520;-80
2023/08/08 07:52:56;;;;;;;16.80;3.95;;;16.50;96.90;;;;;;4921032;28;90337;-81
2023/08/08 07:55:52;;;;;;;12.52;3.92;;;16.60;96.60;;;;;;4915634;28;93008;-82
2023/08/08 07:58:18;;;;;;;9.40;2.75;;;16.70;96.60;;;;;;4930617;28;89353;-81
2023/08/08 08:00:55;;;;;;;18.15;4.57;;;16.80;97.00;;;;;;4913138;28;90405;-81
2023/08/08 08:03:25;;;;;;;14.93;3.30;;;17.00;96.40;;;;;;4905005;28;88879;-81
2023/08/08 08:05:53;;;;;;;8.90;2.83;;;17.10;95.90;;;;;;4898879;28;87484;-81
2023/08/08 08:08:21;;;;;;;9.95;2.90;;;17.20;95.40;;;;;;4934520;28;87893;-81
2023/08/08 08:10:50;;;;;;;12.45;2.97;;;17.30;95.50;;;;;;4930926;28;90179;-81
2023/08/08 08:13:23;;;;;;;12.68;3.10;;;17.40;95.00;;;;;;4912724;28;91143;-81
2023/08/08 08:15:49;;;;;;;14.82;3.65;;;17.40;94.50;;;;;;4911343;28;87801;-81
2023/08/08 08:18:17;;;;;;;11.88;3.20;;;17.50;94.60;;;;;;4928295;28;87073;-80
2023/08/08 08:20:56;;;;;;;12.65;2.50;;;17.50;94.50;;;;;;4917384;28;90179;-80
2023/08/08 08:23:26;;;;;;;9.20;2.85;;;17.60;95.00;;;;;;4920413;28;92758;-80
2023/08/08 08:25:54;;;;;;;10.52;3.40;;;17.60;94.20;;;;;;4934943;28;87013;-81
2023/08/08 08:28:20;;;;;;;14.55;2.63;;;17.60;94.10;;;;;;4917032;28;87586;-81
2023/08/08 08:30:57;;;;;;;;;;;;;;;;;;;;;
2023/08/08 08:34:03;;;;;;;6.90;1.90;;;17.80;94.50;;;;;;4922302;28;117589;-80
2023/08/08 08:36:29;;;;;;;10.20;2.38;;;17.90;94.20;;;;;;4937257;28;87403;-80
2023/08/08 08:38:55;;;;;;;9.68;2.65;;;17.90;93.50;;;;;;4922340;28;89242;-81
2023/08/08 08:41:25;;;;;;;13.27;2.53;;;17.90;93.70;;;;;;4909302;28;90314;-77
2023/08/08 08:43:51;;;;;;;10.07;2.20;;;18.00;92.80;;;;;;4916388;28;88049;-77
2023/08/08 08:46:21;;;;;;;7.88;2.35;;;17.90;92.80;;;;;;4907130;28;88932;-77
2023/08/08 08:48:49;;;;;;;12.05;2.40;;;17.90;92.80;;;;;;4899356;28;90716;-77
2023/08/08 08:51:16;;;;;;;12.60;3.08;;;17.90;92.70;;;;;;4916451;28;88869;-77
2023/08/08 08:53:43;;;;;;;9.77;2.05;;;17.90;93.10;;;;;;4918129;28;88304;-77
2023/08/08 08:56:08;;;;;;;13.85;2.53;;;17.90;93.00;;;;;;4900350;28;87768;-77
2023/08/08 08:58:34;;;;;;;9.40;1.75;;;18.00;92.50;;;;;;4902707;28;89228;-78
2023/08/08 09:01:12;;;;;;;7.10;1.90;;;18.10;92.40;;;;;;4900357;28;88087;-81
2023/08/08 09:06:24;;;;;;;9.15;2.35;;;18.30;91.50;;;;;;5557710;22;88697;-81
2023/08/08 09:08:51;;;;;;;9.23;1.60;;;18.40;91.30;;;;;;4938094;28;88472;-81
2023/08/08 09:11:20;;;;;;;7.15;1.63;;;18.40;91.30;;;;;;4972265;28;90930;-81
2023/08/08 09:13:48;;;;;;;6.13;1.70;;;18.50;91.50;;;;;;4965403;28;89068;-82
2023/08/08 09:16:34;;;;;;;9.25;1.52;;;18.60;90.90;;;;;;4966162;28;87523;-81
2023/08/08 09:19:43;;;;;;;7.10;1.92;;;18.70;90.30;;;;;;4983927;28;87229;-81
2023/08/08 09:22:09;;;;;;;8.10;1.80;;;18.80;89.50;;;;;;4974675;28;88045;-80
2023/08/08 09:24:46;;;;;;;9.82;2.00;;;18.90;89.80;;;;;;4970462;28;88231;-81
2023/08/08 09:27:43;;;;;;;;;;;;;;;;;;;;;
2023/08/08 09:36:30;;;;;;;10.07;2.33;;;19.00;88.70;;;;;;4612124;26;87321;-81
2023/08/08 09:39:01;;;;;;;7.50;1.90;;;19.00;87.10;;;;;;4959007;28;88877;-80
2023/08/08 09:41:33;;;;;;;7.70;2.15;;;19.00;88.70;;;;;;4964886;28;89623;-81
2023/08/08 09:44:00;;;;;;;7.10;2.20;;;19.10;88.10;;;;;;4954511;28;90795;-80
2023/08/08 09:46:28;;;;;;;6.40;1.50;;;19.10;88.10;;;;;;4952221;28;91537;-77
2023/08/08 09:48:55;;;;;;;9.20;1.95;;;19.20;87.20;;;;;;4950421;28;87855;-79
2023/08/08 09:51:21;;;;;;;7.75;2.28;;;19.20;86.40;;;;;;4967983;28;87921;-77
2023/08/08 09:53:49;;;;;;;5.57;1.90;;;19.20;87.60;;;;;;4968658;28;87643;-77
2023/08/08 09:56:15;;;;;;;4.72;1.83;;;19.20;87.40;;;;;;4968209;28;87647;-77
2023/08/08 09:58:47;;;;;;;6.88;2.22;;;19.20;86.00;;;;;;4966864;28;87705;-80
2023/08/08 10:01:15;;;;;;;7.50;1.65;;;19.20;87.30;;;;;;4963466;28;89046;-81
2023/08/08 10:04:02;;;;;;;6.97;1.73;;;19.30;88.30;;;;;;4934304;28;93025;-81
2023/08/08 10:06:34;;;;;;;9.30;1.88;;;19.40;86.50;;;;;;4949095;28;92633;-80
2023/08/08 10:12:28;;;;;;;10.73;2.33;;;19.60;86.90;;;;;;4955730;28;87962;-77
2023/08/08 10:14:54;;;;;;;4.13;1.35;;;19.60;84.70;;;;;;4967663;28;90511;-77
2023/08/08 10:17:27;;;;;;;9.82;2.47;;;19.60;85.00;;;;;;4968645;28;87656;-77
2023/08/08 10:19:54;;;;;;;10.20;1.50;;;19.50;85.10;;;;;;4939372;28;87555;-77
2023/08/08 10:22:24;;;;;;;10.05;2.15;;;19.50;84.40;;;;;;4968269;28;87465;-77
2023/08/08 10:24:54;;;;;;;5.68;1.95;;;19.50;85.60;;;;;;4960810;28;88037;-78
2023/08/08 10:27:33;;;;;;;6.25;1.67;;;19.40;86.00;;;;;;4967686;28;88682;-78
2023/08/08 10:30:10;;;;;;;5.88;1.50;;;19.30;85.30;;;;;;4967438;28;88606;-78
2023/08/08 10:32:48;;;;;;;7.53;1.67;;;19.30;85.10;;;;;;4950695;28;89332;-77
2023/08/08 10:35:14;;;;;;;5.82;1.98;;;19.30;85.30;;;;;;4967038;28;93424;-78
2023/08/08 10:37:51;;;;;;;6.55;1.77;;;19.30;86.10;;;;;;4970126;28;88542;-80
2023/08/08 10:40:17;;;;;;;6.22;1.80;;;19.20;85.30;;;;;;4972300;28;87144;-81
2023/08/08 10:42:45;;;;;;;8.13;1.65;;;19.20;85.60;;;;;;4956330;28;91447;-80
2023/08/08 10:45:18;;;;;;;7.95;1.40;;;19.10;85.30;;;;;;4959730;28;92093;-80
2023/08/08 10:47:47;;;;;;;6.27;1.87;;;19.00;85.40;;;;;;4957348;28;90511;-77
2023/08/08 10:50:15;;;;;;;4.85;1.50;;;19.00;85.50;;;;;;4969476;28;88736;-77
2023/08/08 10:52:51;;;;;;;3.85;1.52;;;19.00;85.90;;;;;;4968119;28;87463;-77
2023/08/08 10:55:31;;;;;;;6.22;1.80;;;19.00;86.30;;;;;;4968878;28;90121;-77
2023/08/08 10:58:07;;;;;;;7.05;1.67;;;19.10;86.30;;;;;;4968272;28;92483;-77
2023/08/08 11:00:35;;;;;;;6.97;2.25;;;19.20;86.20;;;;;;4969804;28;87481;-77
2023/08/08 11:03:04;;;;;;;10.65;1.70;;;19.20;85.90;;;;;;4968519;28;87316;-77
2023/08/08 11:05:31;;;;;;;3.42;1.30;;;19.20;84.60;;;;;;4951781;28;90282;-77
2023/08/08 11:07:58;;;;;;;6.95;2.08;;;19.20;85.00;;;;;;4970253;28;87825;-77
2023/08/08 11:10:30;;;;;;;5.38;1.35;;;19.10;83.90;;;;;;4968319;28;87647;-77
2023/08/08 11:13:01;;;;;;;10.82;2.40;;;19.10;84.50;;;;;;4969155;28;86700;-77
2023/08/08 11:15:27;;;;;;;9.20;1.85;;;19.10;84.60;;;;;;4949528;28;91484;-77
2023/08/08 11:17:56;;;;;;;5.53;1.08;;;19.20;84.80;;;;;;4966640;28;88313;-77
2023/08/08 11:20:22;;;;;;;6.75;1.98;;;19.30;83.10;;;;;;4970060;28;88852;-77
2023/08/08 11:22:56;;;;;;;4.72;1.50;;;19.40;82.50;;;;;;4967784;28;87663;-77
2023/08/08 11:25:25;;;;;;;5.57;1.55;;;19.40;81.60;;;;;;4967434;28;88614;-77
2023/08/08 11:27:55;;;;;;;4.53;1.85;;;19.30;82.70;;;;;;4950406;28;94710;-77
2023/08/08 11:30:22;;;;;;;3.78;1.23;;;19.40;82.70;;;;;;4967737;28;94580;-77
2023/08/08 11:32:49;;;;;;;6.03;1.75;;;19.40;82.10;;;;;;4967157;28;87498;-77
2023/08/08 11:35:21;;;;;;;8.65;1.95;;;19.40;81.50;;;;;;4966628;28;89191;-77
2023/08/08 11:37:48;;;;;;;7.65;1.70;;;19.40;82.00;;;;;;4962124;28;92428;-77
2023/08/08 11:40:14;;;;;;;7.30;2.00;;;19.30;82.40;;;;;;4967296;28;87528;-77
2023/08/08 11:42:41;;;;;;;3.92;1.50;;;19.20;82.20;;;;;;4967101;28;88001;-77
2023/08/08 11:45:09;;;;;;;7.28;1.52;;;19.20;82.20;;;;;;4949046;28;93435;-77
2023/08/08 11:47:36;;;;;;;4.80;1.80;;;19.10;83.70;;;;;;4967050;28;90464;-77
2023/08/08 11:50:04;;;;;;;7.60;2.10;;;19.10;84.30;;;;;;4964692;28;87965;-77
2023/08/08 11:52:30;;;;;;;6.95;1.55;;;19.10;84.00;;;;;;4966299;28;89500;-77
2023/08/08 11:54:57;;;;;;;4.80;1.30;;;19.00;83.90;;;;;;4964809;28;88367;-77
2023/08/08 11:57:23;;;;;;;7.25;1.75;;;18.90;83.90;;;;;;4966714;28;88368;-77
2023/08/08 11:59:49;;;;;;;4.32;1.92;;;18.90;83.20;;;;;;4965901;28;87472;-77
2023/08/08 12:02:15;;;;;;;8.00;2.42;;;18.80;85.30;;;;;;4966677;28;87531;-77
2023/08/08 12:04:47;;;;;;;6.35;1.13;;;18.80;85.50;;;;;;4966761;28;89157;-77
2023/08/08 12:07:13;;;;;;;3.97;1.48;;;18.80;85.40;;;;;;4962930;28;90639;-77
2023/08/08 12:09:39;;;;;;;6.82;1.50;;;18.70;83.90;;;;;;4964189;28;88541;-77
2023/08/08 12:12:05;;;;;;;7.78;2.15;;;18.60;84.50;;;;;;4966138;28;87902;-77
2023/08/08 12:14:38;;;;;;;6.30;1.40;;;18.60;85.10;;;;;;4967157;28;88589;-77
2023/08/08 12:17:05;;;;;;;;;;;18.60;84.90;;;;;;4965422;28;90477;-77
2023/08/08 12:19:30;;;;;;;5.43;1.42;;;18.50;85.40;;;;;;4967780;28;87572;-77
2023/08/08 12:21:56;;;;;;;8.63;1.67;;;18.50;85.30;;;;;;4966819;28;87679;-77
2023/08/08 12:24:22;;;;;;;7.65;1.67;;;18.50;85.30;;;;;;4965555;28;88834;-77
2023/08/08 12:26:48;;;;;;;5.18;1.60;;;18.50;86.00;;;;;;4966871;28;86602;-77
2023/08/08 12:29:14;;;;;;;6.85;1.38;;;18.50;86.00;;;;;;4965607;28;87752;-77
2023/08/08 12:31:39;;;;;;;8.00;1.98;;;18.60;86.60;;;;;;4967227;28;87709;-77
2023/08/08 12:34:05;;;;;;;9.15;1.70;;;18.80;87.60;;;;;;4964953;28;89902;-77
2023/08/08 12:36:31;;;;;;;6.55;1.58;;;18.90;87.20;;;;;;4964425;28;89015;-77
2023/08/08 12:38:57;;;;;;;6.50;1.70;;;19.20;86.80;;;;;;4966673;28;87727;-77
2023/08/08 12:41:24;;;;;;;4.57;1.48;;;19.50;86.50;;;;;;4965844;28;87209;-76
2023/08/08 12:43:50;;;;;;;6.35;1.00;;;19.90;81.90;;;;;;4965615;28;88737;-77
2023/08/08 12:46:16;;;;;;;5.03;1.27;;;20.10;82.20;;;;;;4964495;28;87576;-77
2023/08/08 12:48:43;;;;;;;5.55;1.30;;;20.30;79.70;;;;;;4965098;28;87594;-77
2023/08/08 12:51:09;;;;;;;4.97;0.90;;;20.40;78.60;;;;;;4964940;28;87426;-77
2023/08/08 12:53:35;;;;;;;3.42;0.90;;;20.50;76.50;;;;;;4965968;28;88533;-77
2023/08/08 12:56:02;;;;;;;7.63;1.13;;;20.70;79.60;;;;;;4964780;28;89141;-77
2023/08/08 12:58:27;;;;;;;6.95;0.90;;;20.90;76.90;;;;;;4947432;28;88963;-77